Time;durP1;ratioP1;P1;durP2;ratioP2;P2;SDS_P1;SDS_P2;PMS_P1;PMS_P2;Temp;Humidity;BMP_temperature;BMP_pressure;BME280_temperature;BME280_humidity;BME280_pressure;Samples;Min_cycle;Max_cycle;Signal;HPM_P1;HPM_P2
2023/08/08 00:01:02;;;;;;;1.50;1.20;;;;;;;23.03;49.99;99218.34;5092659;28;20028;-88
2023/08/08 00:03:28;;;;;;;0.95;0.65;;;;;;;23.19;49.56;99216.28;5074563;28;20555;-87
2023/08/08 00:05:53;;;;;;;2.22;0.60;;;;;;;23.10;49.47;99195.44;5092890;28;20024;-88
2023/08/08 00:08:18;;;;;;;1.63;0.57;;;;;;;23.06;49.61;99194.78;5093328;28;20509;-88
2023/08/08 00:10:44;;;;;;;0.90;0.77;;;;;;;23.18;49.39;99216.38;5093142;28;20085;-90
2023/08/08 00:13:10;;;;;;;2.33;0.93;;;;;;;23.30;49.31;99206.53;5092407;28;20024;-90
2023/08/08 00:15:36;;;;;;;1.40;0.50;;;;;;;23.29;49.08;99220.97;5092598;28;20031;-89
2023/08/08 00:18:02;;;;;;;1.45;0.52;;;;;;;23.41;49.26;99236.19;5092841;28;20032;-89
2023/08/08 00:20:28;;;;;;;1.27;0.40;;;;;;;23.54;48.85;99225.34;5092650;28;20047;-88
2023/08/08 00:22:53;;;;;;;0.28;0.28;;;;;;;23.31;48.62;99200.16;5074380;28;20036;-90
2023/08/08 00:25:19;;;;;;;0.70;0.70;;;;;;;23.55;48.84;99249.44;5092651;28;20039;-88
2023/08/08 00:27:44;;;;;;;0.75;0.60;;;;;;;23.36;49.17;99215.00;5093045;28;20036;-87
2023/08/08 00:30:12;;;;;;;3.65;0.60;;;;;;;23.38;48.80;99213.03;5092927;28;20024;-88
2023/08/08 00:32:37;;;;;;;0.85;0.40;;;;;;;23.34;49.38;99243.88;5091806;28;20421;-91
2023/08/08 00:35:04;;;;;;;0.57;0.35;;;;;;;23.42;49.42;99256.75;5092349;28;20028;-88
2023/08/08 00:37:29;;;;;;;2.83;0.30;;;;;;;23.62;48.78;99244.47;5091800;28;20039;-89
2023/08/08 00:39:55;;;;;;;0.73;0.47;;;;;;;23.36;49.27;99238.38;5091730;28;20028;-90
2023/08/08 00:42:20;;;;;;;0.88;0.60;;;;;;;23.27;49.14;99229.16;5092146;28;20539;-87
2023/08/08 00:44:46;;;;;;;1.55;0.90;;;;;;;23.11;49.94;99194.47;5091494;28;20023;-88
2023/08/08 00:47:12;;;;;;;0.50;0.20;;;;;;;23.42;50.28;99260.28;5092134;28;20044;-89
2023/08/08 00:49:37;;;;;;;0.75;0.55;;;;;;;22.81;50.54;99194.88;5073597;28;20485;-89
2023/08/08 00:52:04;;;;;;;0.88;0.57;;;;;;;23.15;50.72;99246.22;5092096;28;20039;-88
2023/08/08 00:54:30;;;;;;;0.73;0.60;;;;;;;23.06;50.90;99229.75;5073175;28;20065;-86
2023/08/08 00:56:56;;;;;;;1.88;0.95;;;;;;;23.07;50.90;99211.78;5073330;28;20032;-88
2023/08/08 00:59:22;;;;;;;3.20;0.45;;;;;;;22.97;51.48;99211.63;5073193;28;20074;-88
2023/08/08 01:01:48;;;;;;;1.08;0.98;;;;;;;22.96;51.56;99206.34;5091941;28;20093;-89
2023/08/08 01:04:14;;;;;;;0.82;0.60;;;;;;;22.86;52.00;99211.53;5092030;28;20024;-89
2023/08/08 01:06:48;;;;;;;0.57;0.57;;;;;;;23.09;52.70;99273.56;5092039;28;20470;-89
2023/08/08 01:09:33;;;;;;;0.30;0.30;;;;;;;23.14;52.85;99280.31;5092160;28;20085;-87
2023/08/08 01:12:00;;;;;;;0.65;0.50;;;;;;;23.14;52.77;99276.75;5091962;28;20157;-88
2023/08/08 01:14:28;;;;;;;0.17;0.10;;;;;;;22.89;53.23;99231.00;5091773;28;20024;-87
2023/08/08 01:16:57;;;;;;;0.95;0.25;;;;;;;23.24;53.26;99280.50;5091356;28;20097;-85
2023/08/08 01:19:27;;;;;;;1.95;0.88;;;;;;;23.07;54.17;99287.94;5073171;28;20722;-88
2023/08/08 01:21:54;;;;;;;1.23;0.82;;;;;;;23.07;53.66;99255.66;5091250;28;20055;-88
2023/08/08 01:24:27;;;;;;;0.35;0.20;;;;;;;23.10;53.82;99264.53;5090911;28;20024;-88
2023/08/08 01:26:53;;;;;;;0.45;0.30;;;;;;;22.92;53.70;99231.75;5090543;28;20043;-89
2023/08/08 01:29:18;;;;;;;0.20;0.20;;;;;;;22.95;54.34;99256.56;5072448;28;20047;-90
2023/08/08 01:31:44;;;;;;;0.40;0.40;;;;;;;23.01;54.60;99282.16;5091183;28;20387;-88
2023/08/08 01:34:10;;;;;;;1.08;0.80;;;;;;;22.80;54.91;99255.88;5091707;28;20062;-86
2023/08/08 01:36:44;;;;;;;0.10;0.10;;;;;;;22.58;55.42;99269.97;5090263;28;20513;-87
2023/08/08 01:39:16;;;;;;;1.13;0.70;;;;;;;22.70;54.69;99292.44;5091226;28;20483;-89
2023/08/08 01:41:44;;;;;;;1.85;0.45;;;;;;;22.66;54.49;99256.88;5072366;28;20404;-88
2023/08/08 01:44:11;;;;;;;0.40;0.40;;;;;;;22.95;54.46;99307.66;5090936;28;20034;-87
2023/08/08 01:46:38;;;;;;;0.57;0.40;;;;;;;22.64;54.34;99274.06;5072262;28;20113;-87
2023/08/08 01:49:04;;;;;;;1.02;0.30;;;;;;;22.68;54.83;99300.63;5090088;28;21711;-88
2023/08/08 01:51:29;;;;;;;0.10;0.10;;;;;;;22.66;54.53;99291.81;5072354;28;20028;-86
2023/08/08 01:53:56;;;;;;;0.10;0.10;;;;;;;22.55;55.11;99315.88;5085136;28;20383;-88
2023/08/08 01:56:21;;;;;;;0.10;0.10;;;;;;;22.57;55.51;99323.84;5090539;28;20134;-88
2023/08/08 01:58:47;;;;;;;0.43;0.28;;;;;;;22.37;55.53;99284.94;5073058;28;20034;-91
2023/08/08 02:01:12;;;;;;;0.10;0.10;;;;;;;22.37;55.92;99322.56;5090634;28;20032;-89
2023/08/08 02:03:38;;;;;;;0.63;0.20;;;;;;;22.02;56.39;99282.88;5072462;28;20472;-86
2023/08/08 02:06:03;;;;;;;0.10;0.10;;;;;;;22.17;56.35;99316.72;5090842;28;20020;-88
2023/08/08 02:08:29;;;;;;;0.38;0.38;;;;;;;22.21;56.10;99306.63;5090264;28;20093;-90
2023/08/08 02:10:54;;;;;;;0.57;0.52;;;;;;;22.13;56.31;99299.94;5071513;28;20417;-90
2023/08/08 02:13:20;;;;;;;0.17;0.17;;;;;;;22.10;56.40;99285.88;5090611;28;20165;-87
2023/08/08 02:15:46;;;;;;;0.47;0.47;;;;;;;21.93;56.58;99304.00;5090468;28;20442;-88
2023/08/08 02:18:11;;;;;;;0.20;0.20;;;;;;;21.96;56.92;99319.91;5090967;28;20047;-88
2023/08/08 02:20:37;;;;;;;0.52;0.52;;;;;;;21.93;56.89;99304.00;5090436;28;20077;-88
2023/08/08 02:23:02;;;;;;;0.10;0.10;;;;;;;21.97;56.98;99289.41;5090440;28;20043;-87
2023/08/08 02:25:29;;;;;;;0.32;0.32;;;;;;;21.88;57.74;99324.09;5089713;28;20482;-89
2023/08/08 02:27:55;;;;;;;0.55;0.10;;;;;;;22.12;57.78;99353.78;5090676;28;20024;-88
2023/08/08 02:30:20;;;;;;;0.20;0.20;;;;;;;21.97;57.51;99315.41;5072168;28;20415;-88
2023/08/08 02:32:46;;;;;;;0.20;0.20;;;;;;;22.05;57.66;99356.03;5090270;28;20105;-88
2023/08/08 02:35:12;;;;;;;2.78;0.57;;;;;;;22.06;57.42;99330.03;5090219;28;20482;-88
2023/08/08 02:37:37;;;;;;;0.25;0.25;;;;;;;22.07;57.97;99354.09;5089847;28;20178;-87
2023/08/08 02:40:04;;;;;;;0.57;0.52;;;;;;;21.68;57.69;99287.88;5090176;28;20401;-87
2023/08/08 02:42:30;;;;;;;0.30;0.30;;;;;;;21.61;58.28;99306.19;5090391;28;20120;-87
2023/08/08 02:44:55;;;;;;;0.85;0.50;;;;;;;21.64;58.73;99351.59;5090199;28;20070;-87
2023/08/08 02:47:21;;;;;;;0.10;0.10;;;;;;;21.73;58.84;99363.56;5072364;28;20429;-87
2023/08/08 02:49:47;;;;;;;0.10;0.10;;;;;;;21.59;58.55;99346.53;5090245;28;20024;-87
2023/08/08 02:52:12;;;;;;;0.80;0.80;;;;;;;21.30;58.99;99329.63;5089571;28;20035;-88
2023/08/08 02:54:38;;;;;;;0.20;0.20;;;;;;;21.44;59.12;99368.97;5090038;28;20459;-87
2023/08/08 02:57:04;;;;;;;0.60;0.30;;;;;;;21.28;59.58;99374.50;5090076;28;20096;-87
2023/08/08 02:59:31;;;;;;;0.08;0.08;;;;;;;21.33;59.23;99361.63;5090327;28;20040;-87
2023/08/08 03:01:56;;;;;;;0.10;0.10;;;;;;;21.38;59.57;99385.47;5089729;28;20028;-89
2023/08/08 03:04:22;;;;;;;0.30;0.30;;;;;;;21.49;59.64;99391.06;5090123;28;20047;-87
2023/08/08 03:06:47;;;;;;;0.13;0.13;;;;;;;21.33;60.05;99379.56;5089322;28;20106;-85
2023/08/08 03:09:13;;;;;;;0.30;0.30;;;;;;;21.04;60.38;99344.75;5090160;28;20036;-90
2023/08/08 03:11:41;;;;;;;0.28;0.20;;;;;;;20.98;60.58;99339.78;5070405;28;20090;-89
2023/08/08 03:14:07;;;;;;;0.57;0.40;;;;;;;21.04;61.34;99403.75;5088312;28;20043;-90
2023/08/08 03:16:33;;;;;;;0.47;0.30;;;;;;;21.09;61.28;99389.06;5089297;28;20035;-87
2023/08/08 03:19:01;;;;;;;0.10;0.10;;;;;;;21.16;61.33;99408.31;5091067;28;20028;-87
2023/08/08 03:21:26;;;;;;;0.10;0.10;;;;;;;21.14;61.70;99420.13;5093059;28;20085;-84
2023/08/08 03:23:53;;;;;;;0.10;0.10;;;;;;;21.04;61.63;99387.66;5074761;28;20047;-91
2023/08/08 03:26:18;;;;;;;0.50;0.40;;;;;;;20.80;62.10;99366.78;5093887;28;20036;-89
2023/08/08 03:28:44;;;;;;;0.20;0.20;;;;;;;21.12;62.73;99438.97;5075803;28;20039;-91
2023/08/08 03:31:09;;;;;;;0.90;0.47;;;;;;;21.02;63.26;99441.38;5076131;28;20097;-91
2023/08/08 03:33:35;;;;;;;0.22;0.22;;;;;;;20.69;63.27;99380.84;5093954;28;20499;-92
2023/08/08 03:36:00;;;;;;;1.10;0.40;;;;;;;20.88;63.75;99417.22;5093535;28;20024;-94
2023/08/08 03:38:26;;;;;;;0.20;0.13;;;;;;;20.86;63.35;99436.09;5057140;28;20044;-92
2023/08/08 03:40:51;;;;;;;0.52;0.52;;;;;;;20.71;64.49;99437.91;5093307;28;20478;-86
2023/08/08 03:43:17;;;;;;;0.55;0.35;;;;;;;20.64;65.15;99444.56;5074791;28;20398;-89
2023/08/08 03:45:44;;;;;;;0.75;0.75;;;;;;;20.67;65.56;99465.00;5093094;28;20131;-87
2023/08/08 03:48:11;;;;;;;0.20;0.20;;;;;;;20.51;66.36;99454.28;5068696;28;20044;-87
2023/08/08 03:50:36;;;;;;;0.22;0.22;;;;;;;20.65;66.29;99480.28;5073373;28;20151;-89
2023/08/08 03:53:04;;;;;;;0.20;0.20;;;;;;;20.40;66.10;99438.84;5072457;28;20145;-89
2023/08/08 03:55:32;;;;;;;0.20;0.20;;;;;;;20.42;66.43;99469.13;5070135;28;20486;-91
2023/08/08 03:57:57;;;;;;;0.15;0.15;;;;;;;20.39;66.23;99450.53;5072553;28;20264;-90
2023/08/08 04:00:23;;;;;;;0.20;0.20;;;;;;;20.36;66.89;99459.63;5073250;28;20115;-89
2023/08/08 04:02:49;;;;;;;0.17;0.17;;;;;;;20.48;66.79;99479.47;5075773;28;20601;-93
2023/08/08 04:05:15;;;;;;;0.65;0.43;;;;;;;20.00;68.16;99460.81;5075230;28;20028;-93
2023/08/08 04:07:42;;;;;;;0.10;0.10;;;;;;;20.31;67.72;99485.81;5076073;28;20044;-92
2023/08/08 04:10:08;;;;;;;0.43;0.43;;;;;;;20.00;68.19;99460.81;5058024;28;20032;-93
2023/08/08 04:12:34;;;;;;;0.10;0.10;;;;;;;20.08;68.44;99500.53;5073673;28;20068;-93
2023/08/08 04:15:00;;;;;;;0.10;0.10;;;;;;;20.09;68.63;99542.41;5072625;28;20025;-95
2023/08/08 04:17:26;;;;;;;0.10;0.10;;;;;;;19.92;69.00;99507.72;5072225;28;21107;-92
2023/08/08 04:19:53;;;;;;;0.20;0.20;;;;;;;20.05;69.03;99532.84;5056746;28;20033;-94
2023/08/08 04:22:19;;;;;;;0.10;0.10;;;;;;;19.80;68.62;99523.50;5053604;28;20041;-88
2023/08/08 04:24:46;;;;;;;0.38;0.35;;;;;;;19.69;68.55;99477.72;5051141;28;20036;-90
2023/08/08 04:27:13;;;;;;;0.20;0.20;;;;;;;19.98;69.12;99561.75;5072005;28;20034;-93
2023/08/08 04:29:41;;;;;;;0.55;0.52;;;;;;;19.47;70.15;99500.31;5056329;28;20025;-91
2023/08/08 04:32:08;;;;;;;0.47;0.20;;;;;;;19.84;70.90;99572.38;5053959;28;20040;-90
2023/08/08 04:34:34;;;;;;;0.10;0.10;;;;;;;19.81;73.68;99570.72;5071343;28;20064;-94
2023/08/08 04:36:59;;;;;;;5.47;1.38;;;;;;;19.17;77.80;99555.44;5055189;28;20119;-92
2023/08/08 04:39:26;;;;;;;0.30;0.30;;;;;;;19.24;79.60;99552.34;5072764;28;20036;-93
2023/08/08 04:41:52;;;;;;;0.30;0.30;;;;;;;18.87;81.52;99508.00;5057029;28;20045;-92
2023/08/08 04:44:17;;;;;;;0.55;0.43;;;;;;;18.73;83.46;99535.41;5059592;28;20028;-91
2023/08/08 04:46:43;;;;;;;0.10;0.10;;;;;;;19.12;83.97;99596.66;5075672;28;20490;-94
2023/08/08 04:49:08;;;;;;;0.20;0.20;;;;;;;18.82;84.59;99563.47;5075532;28;20421;-94
2023/08/08 04:51:35;;;;;;;1.15;0.77;;;;;;;18.81;84.44;99548.38;5058774;28;20036;-95
2023/08/08 04:54:00;;;;;;;0.30;0.30;;;;;;;19.24;85.06;99602.31;5057845;28;20048;-93
2023/08/08 04:56:26;;;;;;;0.40;0.40;;;;;;;19.08;83.67;99587.06;5072362;28;20133;-91
2023/08/08 04:58:53;;;;;;;0.65;0.40;;;;;;;18.92;84.17;99594.13;5091191;28;20032;-90
2023/08/08 05:01:20;;;;;;;0.75;0.28;;;;;;;19.01;83.74;99633.75;5072799;28;20035;-91
2023/08/08 05:03:48;;;;;;;0.80;0.80;;;;;;;18.82;83.77;99643.63;5091133;28;20052;-90
2023/08/08 05:06:13;;;;;;;0.10;0.10;;;;;;;19.00;84.23;99653.44;5091500;28;20027;-90
2023/08/08 05:08:40;;;;;;;0.22;0.22;;;;;;;18.86;83.84;99656.78;5071946;28;20028;-93
2023/08/08 05:11:05;;;;;;;0.57;0.50;;;;;;;18.47;84.79;99624.84;5072966;28;20115;-95
2023/08/08 05:13:31;;;;;;;1.35;1.05;;;;;;;18.77;85.38;99676.78;5074851;28;20055;-94
2023/08/08 05:15:56;;;;;;;0.47;0.30;;;;;;;18.76;85.49;99660.81;5074909;28;20446;-93
2023/08/08 05:18:22;;;;;;;0.28;0.28;;;;;;;18.76;85.70;99677.72;5093285;28;20062;-94
2023/08/08 05:20:47;;;;;;;0.35;0.30;;;;;;;18.83;85.75;99672.94;5074439;28;20032;-94
2023/08/08 05:23:15;;;;;;;0.20;0.20;;;;;;;18.71;86.70;99692.25;5076981;28;20490;-96
2023/08/08 05:25:43;;;;;;;0.13;0.13;;;;;;;18.48;86.32;99661.31;5075383;28;20032;-93
2023/08/08 05:28:08;;;;;;;0.20;0.20;;;;;;;18.47;86.42;99665.75;5074430;28;20085;-93
2023/08/08 05:30:34;;;;;;;0.80;0.80;;;;;;;18.49;87.38;99676.38;5093842;28;20028;-89
2023/08/08 05:32:59;;;;;;;0.38;0.22;;;;;;;18.83;87.52;99706.81;5096587;28;20765;-93
2023/08/08 05:35:25;;;;;;;0.60;0.47;;;;;;;18.96;87.37;99710.66;5093479;28;20111;-91
2023/08/08 05:37:51;;;;;;;0.40;0.40;;;;;;;18.34;88.13;99659.31;5073184;28;20120;-90
2023/08/08 05:40:16;;;;;;;0.95;0.75;;;;;;;18.35;88.99;99680.59;5072731;28;20027;-90
2023/08/08 05:42:42;;;;;;;0.68;0.43;;;;;;;18.64;90.91;99725.53;5090035;28;20114;-90
2023/08/08 05:45:08;;;;;;;0.45;0.45;;;;;;;18.40;89.61;99697.25;5090834;28;20024;-91
2023/08/08 05:47:33;;;;;;;0.70;0.70;;;;;;;18.01;91.09;99665.25;5090714;28;20078;-92
2023/08/08 05:49:59;;;;;;;0.30;0.30;;;;;;;18.15;91.30;99710.00;5073339;28;20470;-91
2023/08/08 05:52:24;;;;;;;0.65;0.38;;;;;;;18.37;89.93;99741.94;5091095;28;20043;-91
2023/08/08 05:54:50;;;;;;;0.60;0.60;;;;;;;18.42;87.01;99740.75;5091270;28;20031;-92
2023/08/08 05:57:16;;;;;;;0.30;0.30;;;;;;;18.24;87.68;99760.31;5072808;28;20036;-94
2023/08/08 05:59:44;;;;;;;0.43;0.43;;;;;;;17.95;85.89;99685.09;5091640;28;20051;-92
2023/08/08 06:02:11;;;;;;;0.77;0.73;;;;;;;18.22;86.77;99749.69;5090859;28;20055;-93
2023/08/08 06:04:37;;;;;;;3.10;0.50;;;;;;;17.87;86.68;99716.56;5090857;28;20050;-91
2023/08/08 06:07:03;;;;;;;0.38;0.30;;;;;;;17.82;86.28;99689.22;5091168;28;20537;-91
2023/08/08 06:09:31;;;;;;;0.28;0.28;;;;;;;17.98;86.73;99713.44;5090192;28;20028;-92
2023/08/08 06:11:56;;;;;;;1.00;0.90;;;;;;;17.80;86.84;99713.31;5071775;28;20118;-93
2023/08/08 06:14:24;;;;;;;0.30;0.30;;;;;;;17.94;87.60;99734.06;5090351;28;20613;-93
2023/08/08 06:16:49;;;;;;;0.77;0.55;;;;;;;17.89;87.34;99704.94;5079113;28;20029;-90
2023/08/08 06:19:15;;;;;;;0.95;0.50;;;;;;;17.74;87.83;99723.41;5070351;28;20085;-91
2023/08/08 06:21:41;;;;;;;0.45;0.35;;;;;;;17.85;90.19;99771.81;5079491;28;20031;-92
2023/08/08 06:24:07;;;;;;;1.38;0.60;;;;;;;17.39;91.49;99755.97;5088732;28;20093;-91
2023/08/08 06:26:33;;;;;;;0.80;0.68;;;;;;;17.70;92.36;99792.88;5075269;28;20486;-91
2023/08/08 06:28:59;;;;;;;1.83;1.35;;;;;;;17.67;91.92;99778.78;5071523;28;20101;-93
2023/08/08 06:31:24;;;;;;;1.05;0.88;;;;;;;17.81;92.14;99794.19;5062882;28;20036;-96
2023/08/08 06:33:50;;;;;;;0.82;0.73;;;;;;;17.82;92.22;99770.13;5062458;28;20032;-92
2023/08/08 06:36:15;;;;;;;0.20;0.20;;;;;;;17.66;91.86;99734.41;5051184;28;20501;-93
2023/08/08 06:38:42;;;;;;;0.63;0.63;;;;;;;17.91;91.72;99747.56;5069489;28;20564;-94
2023/08/08 06:41:08;;;;;;;9.77;0.82;;;;;;;18.05;91.14;99752.28;5071285;28;20032;-94
2023/08/08 06:43:34;;;;;;;0.73;0.60;;;;;;;18.33;89.33;99759.88;5071029;28;20108;-93
2023/08/08 06:46:00;;;;;;;0.77;0.77;;;;;;;18.74;87.83;99762.44;5052560;28;20112;-95
2023/08/08 06:48:26;;;;;;;1.38;1.27;;;;;;;18.88;86.00;99768.97;5052441;28;20052;-95
2023/08/08 06:50:51;;;;;;;0.40;0.40;;;;;;;18.82;85.22;99738.00;5052146;28;20025;-96
2023/08/08 06:53:18;;;;;;;1.30;0.93;;;;;;;19.41;85.64;99752.06;5071710;28;20035;-96
2023/08/08 06:55:43;;;;;;;0.43;0.30;;;;;;;19.76;82.34;99768.13;5061948;28;20035;-96
2023/08/08 06:58:10;;;;;;;0.75;0.50;;;;;;;20.06;80.97;99761.28;5042438;28;20032;-93
2023/08/08 07:00:36;;;;;;;12.20;0.93;;;;;;;20.31;80.00;99758.13;5073584;28;20073;-91
2023/08/08 07:03:01;;;;;;;1.88;1.50;;;;;;;20.37;79.40;99721.19;5054994;28;20028;-95
2023/08/08 07:05:26;;;;;;;0.98;0.38;;;;;;;20.91;78.13;99754.84;5068790;28;20032;-95
2023/08/08 07:07:52;;;;;;;0.30;0.30;;;;;;;21.01;77.14;99739.97;5072938;28;20411;-95
2023/08/08 07:10:19;;;;;;;0.73;0.60;;;;;;;21.47;75.68;99779.31;5055375;28;20037;-95
2023/08/08 07:12:45;;;;;;;1.75;1.65;;;;;;;21.59;74.55;99757.16;5055093;28;20486;-91
2023/08/08 07:15:12;;;;;;;0.50;0.50;;;;;;;21.55;72.66;99750.25;5088607;28;20084;-96
2023/08/08 07:17:42;;;;;;;1.55;0.82;;;;;;;21.56;72.21;99780.63;5078988;28;20495;-96
2023/08/08 07:20:08;;;;;;;1.48;1.08;;;;;;;21.58;72.22;99751.88;5057929;28;20082;-93
2023/08/08 07:22:34;;;;;;;0.50;0.50;;;;;;;21.51;71.43;99764.81;5076474;28;20143;-96
2023/08/08 07:25:04;;;;;;;1.02;0.70;;;;;;;21.46;71.25;99748.09;5078727;28;20044;-96
2023/08/08 07:27:31;;;;;;;0.65;0.57;;;;;;;21.84;71.62;99779.84;5062525;28;20028;-96
2023/08/08 07:30:01;;;;;;;1.00;0.85;;;;;;;22.09;71.59;99784.59;5096370;28;20036;-96
2023/08/08 07:32:27;;;;;;;0.40;0.40;;;;;;;22.18;70.71;99751.78;5078839;28;20032;-96
2023/08/08 07:34:53;;;;;;;0.90;0.70;;;;;;;22.41;71.19;99791.63;5059810;28;20039;-96
2023/08/08 07:37:18;;;;;;;1.33;0.60;;;;;;;22.44;71.31;99786.91;5059414;28;20563;-96
2023/08/08 07:39:44;;;;;;;1.05;0.65;;;;;;;22.53;71.03;99780.13;5076809;28;20516;-96
2023/08/08 07:42:12;;;;;;;0.82;0.55;;;;;;;22.78;70.95;99787.47;5060763;28;20171;-96
2023/08/08 07:44:39;;;;;;;0.68;0.65;;;;;;;22.75;70.83;99766.16;5064760;28;20040;-96
2023/08/08 07:47:06;;;;;;;1.38;0.57;;;;;;;22.75;70.62;99787.66;5097198;28;20044;-96
2023/08/08 07:49:32;;;;;;;0.90;0.88;;;;;;;22.44;70.54;99769.94;5074061;28;20040;-96
2023/08/08 07:51:57;;;;;;;1.13;0.82;;;;;;;22.27;70.71;99779.03;5061009;28;20037;-96
2023/08/08 07:54:25;;;;;;;1.23;0.90;;;;;;;21.94;69.75;99766.75;5057584;28;20053;-94
2023/08/08 07:56:51;;;;;;;0.70;0.70;;;;;;;21.96;70.78;99789.84;5070455;28;20069;-94
2023/08/08 07:59:17;;;;;;;1.20;0.95;;;;;;;22.09;71.49;99792.66;5046513;28;20040;-96
2023/08/08 08:01:43;;;;;;;0.73;0.50;;;;;;;22.00;70.79;99796.75;5042096;28;20047;-96
2023/08/08 08:04:08;;;;;;;1.70;1.45;;;;;;;21.95;69.32;99781.88;5072902;28;20025;-92
2023/08/08 08:06:34;;;;;;;0.70;0.57;;;;;;;22.08;70.85;99784.69;5054130;28;20093;-93
2023/08/08 08:09:00;;;;;;;0.95;0.60;;;;;;;21.93;69.30;99754.25;5062140;28;20024;-95
2023/08/08 08:11:25;;;;;;;1.17;0.65;;;;;;;22.13;70.35;99815.66;5059518;28;20127;-94
2023/08/08 08:13:51;;;;;;;0.50;0.38;;;;;;;22.16;70.57;99803.88;5037872;28;20036;-95
2023/08/08 08:16:16;;;;;;;1.08;0.75;;;;;;;21.89;69.04;99783.13;5054024;28;20115;-91
2023/08/08 08:18:42;;;;;;;0.88;0.88;;;;;;;21.76;69.96;99771.38;5072326;28;20040;-90
2023/08/08 08:21:17;;;;;;;0.68;0.68;;;;;;;21.92;67.77;99793.69;5083192;28;20063;-96
2023/08/08 08:23:43;;;;;;;0.38;0.32;;;;;;;21.40;69.58;99738.56;5059044;28;20028;-93
2023/08/08 08:26:10;;;;;;;1.50;0.90;;;;;;;21.66;71.35;99794.38;5053807;28;20031;-90
2023/08/08 08:28:35;;;;;;;1.13;0.68;;;;;;;21.63;70.91;99742.59;5054486;28;20393;-93
2023/08/08 08:31:08;;;;;;;0.98;0.70;;;;;;;21.70;70.30;99794.09;5052850;28;20024;-88
2023/08/08 08:33:34;;;;;;;0.70;0.60;;;;;;;21.32;70.78;99756.06;5071658;28;20084;-87
2023/08/08 08:36:05;;;;;;;1.38;0.90;;;;;;;21.44;72.08;99806.31;5080102;28;20024;-96
2023/08/08 08:38:30;;;;;;;0.98;0.65;;;;;;;21.27;72.13;99784.06;5062169;28;20116;-90
2023/08/08 08:40:57;;;;;;;0.65;0.52;;;;;;;21.24;71.40;99775.28;5083869;28;20111;-91
2023/08/08 08:43:22;;;;;;;1.40;0.77;;;;;;;21.10;72.29;99793.06;5083785;28;20074;-90
2023/08/08 08:45:52;;;;;;;0.40;0.40;;;;;;;20.83;72.73;99733.81;5076748;28;20070;-91
2023/08/08 08:48:19;;;;;;;0.55;0.52;;;;;;;21.36;72.87;99787.13;5054891;28;20463;-89
2023/08/08 08:50:51;;;;;;;1.20;0.95;;;;;;;21.72;74.66;99761.78;5047701;28;20033;-88
2023/08/08 08:53:17;;;;;;;0.77;0.70;;;;;;;22.41;73.28;99751.31;5050433;28;20086;-92
2023/08/08 08:55:46;;;;;;;1.30;1.17;;;;;;;23.00;69.00;99778.91;5048948;28;20029;-92
2023/08/08 08:58:18;;;;;;;3.72;0.50;;;;;;;23.68;70.16;99784.31;5050434;28;20383;-88
2023/08/08 09:00:46;;;;;;;1.55;1.38;;;;;;;24.17;64.52;99783.63;5050324;28;20597;-93
2023/08/08 09:03:13;;;;;;;1.23;0.57;;;;;;;24.31;63.03;99798.81;5049460;28;20498;-88
2023/08/08 09:05:41;;;;;;;0.45;0.45;;;;;;;24.51;59.38;99778.53;5050462;28;20024;-87
2023/08/08 09:08:08;;;;;;;0.82;0.50;;;;;;;24.25;57.67;99761.53;5049973;28;20025;-93
2023/08/08 09:10:34;;;;;;;0.65;0.63;;;;;;;24.62;60.22;99781.38;5050500;28;20032;-86
2023/08/08 09:13:01;;;;;;;0.30;0.30;;;;;;;24.40;58.18;99760.44;5050581;28;20029;-92
2023/08/08 09:15:34;;;;;;;0.20;0.20;;;;;;;24.62;55.05;99780.50;5049432;28;20694;-88
2023/08/08 09:18:01;;;;;;;0.43;0.43;;;;;;;24.61;54.54;99779.66;5048929;28;20024;-89
2023/08/08 09:20:30;;;;;;;0.38;0.38;;;;;;;24.68;57.99;99777.34;5048713;28;20025;-92
2023/08/08 09:22:56;;;;;;;0.20;0.20;;;;;;;24.87;54.86;99760.72;5047247;28;20037;-87
2023/08/08 09:25:23;;;;;;;0.43;0.43;;;;;;;25.31;56.92;99759.25;5049818;28;20113;-90
2023/08/08 09:27:50;;;;;;;0.70;0.60;;;;;;;25.71;52.25;99750.78;5035335;28;20610;-92
2023/08/08 09:30:15;;;;;;;0.45;0.45;;;;;;;25.98;49.88;99757.78;5048926;28;20037;-90
2023/08/08 09:32:43;;;;;;;0.32;0.20;;;;;;;25.62;49.77;99739.84;5051747;28;20033;-91
2023/08/08 09:35:10;;;;;;;0.30;0.20;;;;;;;25.65;47.78;99755.81;5049599;28;20029;-92
2023/08/08 09:37:36;;;;;;;0.50;0.32;;;;;;;26.09;49.14;99748.81;5047385;28;20115;-89
2023/08/08 09:40:07;;;;;;;1.75;0.77;;;;;;;25.95;51.70;99744.47;5054646;28;20067;-95
2023/08/08 09:42:34;;;;;;;0.73;0.65;;;;;;;25.53;48.00;99727.91;5036889;28;20045;-90
2023/08/08 09:45:00;;;;;;;0.38;0.32;;;;;;;25.61;48.29;99719.22;5045716;28;20029;-92
2023/08/08 09:47:30;;;;;;;0.47;0.45;;;;;;;26.13;48.72;99715.16;5065766;28;20055;-92
2023/08/08 09:49:59;;;;;;;0.57;0.40;;;;;;;26.11;45.92;99697.34;5047774;28;20532;-92
2023/08/08 09:52:27;;;;;;;0.77;0.75;;;;;;;26.57;43.99;99732.34;5049091;28;20074;-93
2023/08/08 09:54:53;;;;;;;0.40;0.35;;;;;;;26.63;43.90;99707.50;5049865;28;20147;-89
2023/08/08 09:57:19;;;;;;;0.50;0.50;;;;;;;26.84;44.43;99717.56;5049522;28;20033;-90
2023/08/08 09:59:47;;;;;;;0.50;0.32;;;;;;;26.54;44.68;99699.25;5048629;28;20131;-89
2023/08/08 10:02:14;;;;;;;0.22;0.22;;;;;;;26.63;44.80;99695.81;5048300;28;20025;-84
2023/08/08 10:04:43;;;;;;;0.40;0.40;;;;;;;26.39;44.98;99729.28;5050887;28;20025;-96
2023/08/08 10:07:08;;;;;;;0.40;0.40;;;;;;;26.32;43.79;99676.69;5048522;28;20043;-91
2023/08/08 10:09:37;;;;;;;1.20;0.50;;;;;;;26.49;43.22;99713.16;5051442;28;20028;-93
2023/08/08 10:12:04;;;;;;;0.28;0.28;;;;;;;26.57;44.54;99743.16;5047733;28;20025;-93
2023/08/08 10:14:31;;;;;;;0.88;0.40;;;;;;;26.48;43.14;99740.31;5049029;28;20111;-94
2023/08/08 10:16:57;;;;;;;0.40;0.20;;;;;;;26.35;43.40;99708.03;5049690;28;20286;-94
2023/08/08 10:19:23;;;;;;;0.70;0.38;;;;;;;26.66;43.12;99727.19;5052828;28;20486;-91
2023/08/08 10:21:57;;;;;;;0.50;0.40;;;;;;;26.58;40.80;99698.88;5062374;28;20037;-93
2023/08/08 10:24:22;;;;;;;0.30;0.30;;;;;;;26.74;41.37;99709.34;5053024;28;20044;-90
2023/08/08 10:26:53;;;;;;;0.45;0.30;;;;;;;26.62;41.52;99646.25;5056475;28;20487;-92
2023/08/08 10:29:20;;;;;;;0.55;0.50;;;;;;;26.94;41.47;99701.41;5047719;28;20033;-93
2023/08/08 10:32:06;;;;;;;0.25;0.25;;;;;;;27.04;41.96;99715.91;5048534;28;20021;-91
2023/08/08 10:34:41;;;;;;;0.65;0.40;;;;;;;27.08;39.23;99719.22;5055401;28;20494;-94
2023/08/08 10:37:14;;;;;;;0.80;0.20;;;;;;;27.42;40.23;99687.47;5080990;28;20021;-93
2023/08/08 10:40:11;;;;;;;0.52;0.22;;;;;;;27.60;38.26;99692.28;5068291;28;20036;-93
2023/08/08 10:43:09;;;;;;;0.25;0.20;;;;;;;28.15;36.79;99711.03;5021415;28;20026;-96
2023/08/08 10:45:36;;;;;;;0.80;0.30;;;;;;;28.15;36.54;99665.81;5067672;23;20064;-96
2023/08/08 10:48:10;;;;;;;0.68;0.40;;;;;;;28.04;38.73;99696.56;5061301;28;20032;-95
2023/08/08 10:50:42;;;;;;;0.28;0.28;;;;;;;27.36;37.33;99690.72;5054231;28;20410;-96
2023/08/08 10:53:12;;;;;;;2.30;0.93;;;;;;;27.85;37.35;99681.06;5072924;28;20086;-91
2023/08/08 10:55:37;;;;;;;0.55;0.40;;;;;;;27.88;37.78;99663.63;5058335;28;20458;-92
2023/08/08 10:58:19;;;;;;;0.17;0.17;;;;;;;27.64;37.53;99661.25;5091992;28;20138;-96
2023/08/08 11:00:45;;;;;;;0.30;0.28;;;;;;;27.61;37.48;99662.34;5047619;28;20478;-93
2023/08/08 11:03:11;;;;;;;0.30;0.30;;;;;;;27.54;36.54;99661.16;5075110;28;20078;-96
2023/08/08 11:05:39;;;;;;;0.77;0.25;;;;;;;27.69;36.85;99686.06;5074349;28;20036;-96
2023/08/08 11:08:06;;;;;;;0.05;0.05;;;;;;;28.15;35.60;99670.38;5086802;28;20020;-92
2023/08/08 11:10:39;;;;;;;0.90;0.38;;;;;;;28.18;36.27;99660.09;5053682;28;20383;-90
2023/08/08 11:13:07;;;;;;;2.25;0.85;;;;;;;27.84;35.42;99676.63;5070720;28;20518;-94
2023/08/08 11:15:36;;;;;;;0.45;0.30;;;;;;;28.20;36.17;99682.50;5072438;28;20066;-94
2023/08/08 11:18:02;;;;;;;0.57;0.52;;;;;;;27.62;36.14;99650.53;5054895;28;20202;-90
2023/08/08 11:20:35;;;;;;;0.20;0.20;;;;;;;27.83;34.75;99674.88;5096139;28;20031;-90
2023/08/08 11:23:00;;;;;;;0.03;0.03;;;;;;;27.58;36.60;99631.97;5067879;28;20035;-92
2023/08/08 11:25:29;;;;;;;1.05;0.60;;;;;;;27.94;35.47;99673.09;5050414;28;20028;-93
2023/08/08 11:27:56;;;;;;;0.50;0.28;;;;;;;27.57;36.13;99684.44;5080210;28;20028;-90
2023/08/08 11:30:23;;;;;;;0.50;0.17;;;;;;;27.14;34.49;99669.97;5079866;28;20032;-88
2023/08/08 11:32:50;;;;;;;0.10;0.10;;;;;;;27.04;36.58;99669.03;5069491;28;20035;-90